Time;durP1;ratioP1;P1;durP2;ratioP2;P2;SDS_P1;SDS_P2;PMS_P1;PMS_P2;Temp;Humidity;BMP_temperature;BMP_pressure;BME280_temperature;BME280_humidity;BME280_pressure;Samples;Min_cycle;Max_cycle;Signal;HPM_P1;HPM_P2
2021/11/19 00:02:00;;;;;;;9.13;6.80;;;9.70;99.90;;;;;;5049361;28;20492;-54
2021/11/19 00:04:30;;;;;;;11.57;7.23;;;9.60;99.90;;;;;;5040116;28;20440;-58
2021/11/19 00:06:56;;;;;;;9.07;6.50;;;9.60;99.90;;;;;;5043897;28;20436;-58
2021/11/19 00:09:22;;;;;;;9.57;7.50;;;9.70;99.90;;;;;;5046581;28;20976;-57
2021/11/19 00:11:49;;;;;;;11.13;7.57;;;9.60;99.90;;;;;;5047819;28;20448;-57
2021/11/19 00:14:17;;;;;;;9.57;7.40;;;9.60;99.90;;;;;;5029931;28;20428;-58
2021/11/19 00:16:46;;;;;;;10.67;6.53;;;9.60;99.90;;;;;;5049379;28;20469;-58
2021/11/19 00:19:12;;;;;;;9.63;6.53;;;9.60;99.90;;;;;;5048262;28;20429;-58
2021/11/19 00:21:40;;;;;;;9.93;6.90;;;9.70;99.90;;;;;;5046276;28;20444;-59
2021/11/19 00:24:06;;;;;;;10.37;6.47;;;9.70;99.90;;;;;;5048689;28;20499;-54
2021/11/19 00:26:33;;;;;;;9.30;6.23;;;9.70;99.90;;;;;;5048494;28;20452;-55
2021/11/19 00:28:59;;;;;;;9.13;6.87;;;9.80;99.90;;;;;;5038697;28;20476;-56
2021/11/19 00:31:25;;;;;;;12.53;6.73;;;9.70;99.90;;;;;;5043355;28;20437;-58
2021/11/19 00:33:52;;;;;;;9.10;6.73;;;9.70;99.90;;;;;;5037718;28;20764;-55
2021/11/19 00:36:21;;;;;;;8.00;6.50;;;9.70;99.90;;;;;;5046686;28;20436;-54
2021/11/19 00:38:48;;;;;;;7.17;6.20;;;9.70;99.90;;;;;;5048121;28;20448;-53
2021/11/19 00:41:15;;;;;;;7.90;6.63;;;9.80;99.90;;;;;;5046974;28;20445;-57
2021/11/19 00:43:40;;;;;;;8.77;6.50;;;9.80;99.90;;;;;;5047807;28;20436;-58
2021/11/19 00:46:07;;;;;;;6.87;6.13;;;9.90;99.90;;;;;;5047259;28;20447;-54
2021/11/19 00:48:34;;;;;;;9.60;5.97;;;9.80;99.90;;;;;;5048325;28;20213;-56
2021/11/19 00:51:27;;;;;;;7.37;6.30;;;9.80;99.90;;;;;;5048720;28;20439;-58
2021/11/19 00:53:56;;;;;;;12.27;6.80;;;9.90;99.90;;;;;;5026873;28;20921;-55
2021/11/19 00:56:26;;;;;;;10.40;6.80;;;9.90;99.90;;;;;;5047903;28;20447;-53
2021/11/19 00:58:53;;;;;;;10.47;6.50;;;9.90;99.90;;;;;;5048172;28;20503;-54
2021/11/19 01:01:31;;;;;;;8.33;6.67;;;10.00;99.90;;;;;;5045398;28;20448;-56
2021/11/19 01:03:59;;;;;;;8.03;6.47;;;9.90;99.90;;;;;;5048506;28;20431;-56
2021/11/19 01:06:24;;;;;;;7.87;6.70;;;10.00;99.90;;;;;;5047912;28;20407;-59
2021/11/19 01:08:50;;;;;;;7.10;6.20;;;10.10;99.90;;;;;;5044148;28;20465;-56
2021/11/19 01:11:19;;;;;;;8.90;5.93;;;10.00;99.90;;;;;;5044754;28;20244;-53
2021/11/19 01:13:47;;;;;;;11.17;6.43;;;10.00;99.90;;;;;;5046906;28;20486;-52
2021/11/19 01:16:36;;;;;;;7.20;6.47;;;10.00;99.90;;;;;;5045372;28;20938;-56
2021/11/19 01:19:10;;;;;;;8.90;6.10;;;10.00;99.90;;;;;;5032287;28;20851;-55
2021/11/19 01:21:43;;;;;;;9.57;5.77;;;10.10;99.90;;;;;;5031814;28;20437;-54
2021/11/19 01:24:09;;;;;;;7.23;5.87;;;10.10;99.90;;;;;;5040966;28;20449;-54
2021/11/19 01:26:37;;;;;;;7.80;6.40;;;10.00;99.90;;;;;;5038775;28;20522;-53
2021/11/19 01:29:10;;;;;;;8.23;6.23;;;10.20;99.90;;;;;;5047767;28;20218;-56
2021/11/19 01:31:46;;;;;;;8.43;6.53;;;10.20;99.90;;;;;;5048553;28;20995;-55
2021/11/19 01:34:12;;;;;;;8.20;5.83;;;10.20;99.90;;;;;;5037802;28;20451;-54
2021/11/19 01:36:38;;;;;;;7.97;5.60;;;10.20;99.90;;;;;;5038368;28;20436;-54
2021/11/19 01:39:07;;;;;;;11.43;6.50;;;10.20;99.90;;;;;;5043536;28;20305;-55
2021/11/19 01:41:47;;;;;;;11.60;6.50;;;10.20;99.90;;;;;;5031175;28;21006;-55
2021/11/19 01:44:31;;;;;;;7.70;6.33;;;10.30;99.90;;;;;;5031598;28;20449;-54
2021/11/19 01:46:58;;;;;;;8.33;6.13;;;10.20;99.90;;;;;;5029316;28;20445;-57
2021/11/19 01:49:28;;;;;;;8.90;6.37;;;10.20;99.90;;;;;;5031919;28;20469;-54
2021/11/19 01:52:01;;;;;;;8.37;6.90;;;10.20;99.90;;;;;;5031446;28;21232;-54
2021/11/19 01:54:37;;;;;;;6.93;5.90;;;10.20;99.90;;;;;;5030473;28;20433;-56
2021/11/19 01:57:09;;;;;;;8.00;6.10;;;10.20;99.90;;;;;;5028133;28;20445;-55
2021/11/19 01:59:42;;;;;;;9.40;6.37;;;10.20;99.90;;;;;;5031972;28;20460;-54
2021/11/19 02:02:20;;;;;;;7.40;6.67;;;10.30;99.90;;;;;;5031174;28;20943;-55
2021/11/19 02:04:54;;;;;;;8.87;5.80;;;10.30;99.90;;;;;;5046272;28;20433;-57
2021/11/19 02:07:28;;;;;;;7.43;6.37;;;10.30;99.90;;;;;;5031233;28;20433;-51
2021/11/19 02:10:10;;;;;;;8.20;6.97;;;10.40;99.90;;;;;;5029908;28;20452;-53
2021/11/19 02:12:47;;;;;;;8.43;6.37;;;10.40;99.90;;;;;;5030589;28;20440;-53
2021/11/19 02:15:22;;;;;;;8.20;7.10;;;10.30;99.90;;;;;;5029543;28;20487;-53
2021/11/19 02:17:51;;;;;;;11.20;6.97;;;10.20;99.90;;;;;;5030082;28;20440;-53
2021/11/19 02:20:30;;;;;;;10.43;6.73;;;10.30;99.90;;;;;;5026260;28;20436;-57
2021/11/19 02:23:05;;;;;;;8.80;6.27;;;10.40;99.90;;;;;;5031588;28;20459;-55
2021/11/19 02:25:43;;;;;;;7.80;6.30;;;10.40;99.90;;;;;;5030892;28;20439;-53
2021/11/19 02:28:15;;;;;;;10.37;6.50;;;10.40;99.90;;;;;;5030406;28;20461;-53
2021/11/19 02:30:48;;;;;;;8.27;6.57;;;10.40;99.90;;;;;;5030642;28;20464;-54
2021/11/19 02:33:15;;;;;;;8.80;6.50;;;10.50;99.90;;;;;;5027394;28;20442;-52
2021/11/19 02:36:12;;;;;;;8.03;6.30;;;10.40;99.90;;;;;;5029263;28;20441;-55
2021/11/19 02:38:57;;;;;;;8.87;6.97;;;10.50;99.90;;;;;;5018579;28;20472;-54
2021/11/19 02:41:27;;;;;;;9.53;7.10;;;10.50;99.90;;;;;;5027756;28;20447;-57
2021/11/19 02:44:00;;;;;;;7.90;6.20;;;10.40;99.90;;;;;;5029284;28;20448;-55
2021/11/19 02:46:30;;;;;;;6.83;6.13;;;10.40;99.90;;;;;;5029393;28;20795;-57
2021/11/19 02:48:56;;;;;;;7.73;6.23;;;10.50;99.90;;;;;;5029058;28;21053;-51
2021/11/19 02:51:24;;;;;;;9.53;6.87;;;10.50;99.90;;;;;;5030627;28;20472;-51
2021/11/19 02:53:50;;;;;;;7.13;6.40;;;10.40;99.90;;;;;;5017893;28;20555;-54
2021/11/19 02:56:18;;;;;;;8.03;6.00;;;10.50;99.90;;;;;;5030157;28;20914;-54
2021/11/19 02:58:47;;;;;;;8.30;6.10;;;10.50;99.90;;;;;;5030834;28;20438;-51
2021/11/19 03:01:35;;;;;;;8.10;6.30;;;10.50;99.90;;;;;;5029783;28;20480;-53
2021/11/19 03:04:21;;;;;;;7.73;5.90;;;10.50;99.90;;;;;;5043731;28;20930;-55
2021/11/19 03:06:49;;;;;;;7.13;5.80;;;10.50;99.90;;;;;;5029587;28;20488;-49
2021/11/19 03:09:18;;;;;;;8.07;6.37;;;10.60;99.90;;;;;;5029075;28;20462;-55
2021/11/19 03:11:44;;;;;;;10.10;6.30;;;10.50;99.90;;;;;;5028379;28;20941;-57
2021/11/19 03:14:11;;;;;;;9.33;6.83;;;10.60;99.90;;;;;;5030257;28;20445;-52
2021/11/19 03:16:38;;;;;;;8.57;5.93;;;10.60;99.90;;;;;;5029752;28;20441;-51
2021/11/19 03:19:05;;;;;;;7.73;6.00;;;10.60;99.90;;;;;;5029428;28;20766;-54
2021/11/19 03:21:31;;;;;;;7.90;6.13;;;10.50;99.90;;;;;;5030496;28;20460;-55
2021/11/19 03:23:57;;;;;;;7.20;5.87;;;10.50;99.90;;;;;;5026229;28;20928;-54
2021/11/19 03:26:24;;;;;;;9.93;6.17;;;10.50;99.90;;;;;;5019086;28;20241;-54
2021/11/19 03:28:50;;;;;;;7.50;6.40;;;10.60;99.90;;;;;;5029344;28;20469;-53
2021/11/19 03:31:16;;;;;;;8.13;6.40;;;10.60;99.90;;;;;;5029055;28;20839;-54
2021/11/19 03:33:44;;;;;;;7.17;6.37;;;10.50;99.90;;;;;;5029345;28;20429;-54
2021/11/19 03:36:12;;;;;;;7.07;6.23;;;10.50;99.90;;;;;;5029283;28;20464;-53
2021/11/19 03:38:41;;;;;;;7.10;6.13;;;10.50;99.90;;;;;;5029357;28;20919;-54
2021/11/19 03:41:07;;;;;;;10.57;7.90;;;10.40;99.90;;;;;;5047090;28;20444;-52
2021/11/19 03:43:40;;;;;;;7.67;6.60;;;10.40;99.90;;;;;;5030301;28;20833;-53
2021/11/19 03:46:11;;;;;;;7.60;6.40;;;10.40;99.90;;;;;;5047937;28;20499;-56
2021/11/19 03:48:37;;;;;;;6.87;5.60;;;10.50;99.90;;;;;;5035832;28;20508;-54
2021/11/19 03:51:09;;;;;;;8.60;6.40;;;10.50;99.90;;;;;;5045563;28;20430;-57
2021/11/19 03:53:35;;;;;;;6.37;5.57;;;10.50;99.90;;;;;;5046220;28;20522;-55
2021/11/19 03:56:01;;;;;;;9.90;5.70;;;10.50;99.90;;;;;;5048223;28;20476;-54
2021/11/19 03:58:29;;;;;;;6.20;5.10;;;10.50;99.90;;;;;;5042607;28;20272;-50
2021/11/19 04:00:59;;;;;;;7.33;5.80;;;10.50;99.90;;;;;;5037061;28;20448;-54
2021/11/19 04:03:25;;;;;;;6.80;5.33;;;10.50;99.90;;;;;;5044823;28;20811;-56
2021/11/19 04:05:51;;;;;;;7.13;5.80;;;10.50;99.90;;;;;;5042998;28;20859;-55
2021/11/19 04:08:17;;;;;;;6.37;5.30;;;10.60;99.90;;;;;;5047892;28;20468;-55
2021/11/19 04:10:46;;;;;;;9.67;6.63;;;10.50;99.90;;;;;;5040537;28;20468;-53
2021/11/19 04:13:12;;;;;;;6.57;5.90;;;10.60;99.90;;;;;;5042108;28;20502;-51
2021/11/19 04:15:43;;;;;;;7.50;5.43;;;10.60;99.90;;;;;;5038766;28;20429;-51
2021/11/19 04:18:11;;;;;;;6.93;5.90;;;10.60;99.90;;;;;;5029120;28;20897;-51
2021/11/19 04:20:37;;;;;;;6.43;5.67;;;10.60;99.90;;;;;;5048162;28;20449;-51
2021/11/19 04:23:03;;;;;;;7.43;6.23;;;10.50;99.90;;;;;;5047140;28;20444;-54
2021/11/19 04:25:28;;;;;;;7.37;5.50;;;10.50;99.90;;;;;;5031625;28;20439;-52
2021/11/19 04:27:55;;;;;;;7.87;6.10;;;10.60;99.90;;;;;;5038999;28;20473;-52
2021/11/19 04:30:26;;;;;;;8.30;6.33;;;10.60;99.90;;;;;;5045428;28;20199;-56
2021/11/19 04:32:52;;;;;;;10.10;6.30;;;10.60;99.90;;;;;;5039553;28;20463;-53
2021/11/19 04:35:18;;;;;;;7.23;5.10;;;10.60;99.90;;;;;;5046794;28;20903;-53
2021/11/19 04:37:45;;;;;;;6.90;6.20;;;10.60;99.90;;;;;;5030756;28;20199;-55
2021/11/19 04:40:12;;;;;;;6.53;5.40;;;10.60;99.90;;;;;;5041301;28;20488;-55
2021/11/19 04:42:38;;;;;;;9.87;6.17;;;10.70;99.90;;;;;;5037639;28;20435;-53
2021/11/19 04:45:07;;;;;;;7.77;6.10;;;10.60;99.90;;;;;;5033854;28;20473;-56
2021/11/19 04:47:33;;;;;;;7.07;6.30;;;10.50;99.90;;;;;;5046791;28;20555;-53
2021/11/19 04:49:59;;;;;;;6.67;6.00;;;10.60;99.90;;;;;;5045264;28;20535;-54
2021/11/19 04:52:25;;;;;;;7.63;6.77;;;10.60;99.90;;;;;;5047315;28;20744;-55
2021/11/19 04:54:51;;;;;;;6.77;6.10;;;10.60;99.90;;;;;;5048455;28;20898;-55
2021/11/19 04:57:17;;;;;;;6.50;5.90;;;10.60;99.90;;;;;;5047581;28;20439;-54
2021/11/19 04:59:43;;;;;;;7.33;6.10;;;10.70;99.90;;;;;;5041642;28;20265;-54
2021/11/19 05:02:12;;;;;;;7.73;6.43;;;10.70;99.90;;;;;;5047199;28;20190;-53
2021/11/19 05:04:38;;;;;;;8.00;6.07;;;10.60;99.90;;;;;;5042539;28;20459;-53
2021/11/19 05:07:04;;;;;;;6.43;5.30;;;10.60;99.90;;;;;;5043752;28;20445;-53
2021/11/19 05:09:30;;;;;;;7.40;6.30;;;10.70;99.90;;;;;;5028605;28;20199;-54
2021/11/19 05:11:58;;;;;;;11.10;7.10;;;10.80;99.90;;;;;;5047384;28;20188;-57
2021/11/19 05:14:25;;;;;;;7.60;6.00;;;10.80;99.90;;;;;;5035324;28;20468;-53
2021/11/19 05:16:51;;;;;;;7.43;6.63;;;10.80;99.90;;;;;;5038538;28;20429;-54
2021/11/19 05:19:17;;;;;;;6.80;6.10;;;10.70;99.90;;;;;;5038128;28;20437;-54
2021/11/19 05:21:44;;;;;;;8.20;6.17;;;10.80;99.90;;;;;;5039222;28;20428;-55
2021/11/19 05:24:10;;;;;;;7.30;6.37;;;10.80;99.90;;;;;;5039004;28;20440;-52
2021/11/19 05:26:37;;;;;;;7.27;6.10;;;10.70;99.90;;;;;;5038469;28;20441;-56
2021/11/19 05:29:04;;;;;;;7.63;5.97;;;10.60;99.90;;;;;;5039439;28;20229;-55
2021/11/19 05:31:32;;;;;;;9.40;7.70;;;10.70;99.90;;;;;;5039355;28;20424;-54
2021/11/19 05:33:58;;;;;;;7.63;6.13;;;10.70;99.90;;;;;;5038534;28;20493;-55
2021/11/19 05:36:24;;;;;;;8.70;7.03;;;10.80;99.90;;;;;;5039283;28;20476;-55
2021/11/19 05:38:50;;;;;;;7.60;6.73;;;10.80;99.90;;;;;;5043825;28;20487;-56
2021/11/19 05:41:20;;;;;;;7.73;6.93;;;10.80;99.90;;;;;;5043464;28;20598;-56
2021/11/19 05:43:49;;;;;;;9.40;7.03;;;10.80;99.90;;;;;;5043906;28;20985;-56
2021/11/19 05:46:18;;;;;;;7.67;6.47;;;10.80;99.90;;;;;;5048370;28;20433;-53
2021/11/19 05:48:44;;;;;;;9.03;7.17;;;10.90;99.90;;;;;;5039410;28;20994;-51
2021/11/19 05:51:10;;;;;;;7.70;6.90;;;10.90;99.90;;;;;;5042363;28;20436;-55
2021/11/19 05:53:36;;;;;;;10.00;7.00;;;10.90;99.90;;;;;;5028766;28;20786;-52
2021/11/19 05:56:02;;;;;;;8.93;6.70;;;10.90;99.90;;;;;;5042058;28;20271;-53
2021/11/19 05:58:29;;;;;;;8.30;6.87;;;10.80;99.90;;;;;;5035315;28;20660;-57
2021/11/19 06:00:58;;;;;;;7.10;6.40;;;10.90;99.90;;;;;;5038113;28;20544;-57
2021/11/19 06:03:24;;;;;;;8.57;7.10;;;11.00;99.90;;;;;;5050945;28;20474;-56
2021/11/19 06:05:50;;;;;;;7.83;6.63;;;11.10;99.90;;;;;;5036536;28;20432;-55
2021/11/19 06:08:17;;;;;;;9.10;7.03;;;11.00;99.90;;;;;;5029790;28;20487;-57
2021/11/19 06:10:53;;;;;;;8.10;6.23;;;11.00;99.90;;;;;;5041961;28;20531;-53
2021/11/19 06:13:36;;;;;;;9.17;6.07;;;11.00;99.90;;;;;;5029713;28;20420;-56
2021/11/19 06:16:12;;;;;;;7.60;6.70;;;11.00;99.90;;;;;;5036777;28;20440;-57
2021/11/19 06:18:41;;;;;;;13.13;7.90;;;11.00;99.90;;;;;;5030672;28;20448;-54
2021/11/19 06:21:12;;;;;;;7.83;6.93;;;11.00;99.90;;;;;;5035135;28;20417;-56
2021/11/19 06:23:48;;;;;;;7.87;6.80;;;11.00;99.90;;;;;;5036819;28;20491;-56
2021/11/19 06:26:17;;;;;;;6.90;6.20;;;11.00;99.90;;;;;;5041946;28;20426;-57
2021/11/19 06:28:45;;;;;;;8.20;6.67;;;11.10;99.90;;;;;;5045925;28;20468;-56
2021/11/19 06:31:14;;;;;;;6.83;5.60;;;11.00;99.90;;;;;;5038299;28;20436;-55
2021/11/19 06:33:39;;;;;;;7.87;5.60;;;11.00;99.90;;;;;;5051493;28;20428;-55
2021/11/19 06:36:07;;;;;;;7.93;7.13;;;11.00;99.90;;;;;;5040954;28;20463;-58
2021/11/19 06:38:34;;;;;;;8.43;6.53;;;11.00;99.90;;;;;;5041698;28;20428;-57
2021/11/19 06:41:01;;;;;;;7.57;6.43;;;11.00;99.90;;;;;;5030761;28;20464;-54
2021/11/19 06:43:26;;;;;;;7.50;6.37;;;11.10;99.90;;;;;;5031292;28;20428;-57
2021/11/19 06:45:52;;;;;;;9.10;7.10;;;11.00;99.90;;;;;;5027581;28;20445;-55
2021/11/19 06:48:18;;;;;;;9.07;6.93;;;11.00;99.90;;;;;;5022639;28;20669;-55
2021/11/19 06:50:44;;;;;;;7.63;6.30;;;11.00;99.90;;;;;;5031614;28;20277;-56
2021/11/19 06:53:10;;;;;;;7.73;6.77;;;11.00;99.90;;;;;;5031174;28;20175;-54
2021/11/19 06:55:36;;;;;;;7.30;6.07;;;11.00;99.90;;;;;;5031281;28;20512;-53
2021/11/19 06:58:03;;;;;;;8.20;6.77;;;11.00;99.90;;;;;;5028753;28;21296;-56
2021/11/19 07:00:32;;;;;;;8.77;6.50;;;11.00;99.90;;;;;;5030551;28;20790;-57
2021/11/19 07:02:58;;;;;;;7.37;6.57;;;11.00;99.90;;;;;;5025899;28;20460;-55
2021/11/19 07:05:24;;;;;;;9.17;7.13;;;11.00;99.90;;;;;;5027978;28;20433;-56
2021/11/19 07:07:50;;;;;;;8.17;6.00;;;11.00;99.90;;;;;;5030150;28;20515;-55
2021/11/19 07:10:18;;;;;;;9.43;7.30;;;11.00;99.90;;;;;;5030354;28;20194;-54
2021/11/19 07:12:44;;;;;;;8.80;6.77;;;11.00;99.90;;;;;;5028813;28;20433;-56
2021/11/19 07:15:11;;;;;;;8.80;6.80;;;11.00;99.90;;;;;;5028498;28;20832;-55
2021/11/19 07:17:38;;;;;;;8.10;7.30;;;11.00;99.90;;;;;;5025921;28;20187;-54
2021/11/19 07:20:06;;;;;;;7.60;6.10;;;11.00;99.90;;;;;;5030306;28;20853;-54
2021/11/19 07:22:32;;;;;;;8.07;6.77;;;11.10;99.90;;;;;;5029367;28;20430;-54
2021/11/19 07:24:58;;;;;;;9.00;6.93;;;11.10;99.90;;;;;;5030372;28;20505;-56
2021/11/19 07:27:24;;;;;;;7.70;6.80;;;11.10;99.90;;;;;;5027243;28;20776;-55
2021/11/19 07:29:50;;;;;;;8.67;6.63;;;11.10;99.90;;;;;;5029890;28;20426;-54
2021/11/19 07:32:15;;;;;;;7.37;6.50;;;11.10;99.90;;;;;;5028641;28;20179;-51
2021/11/19 07:34:41;;;;;;;7.10;6.40;;;11.10;99.90;;;;;;5029406;28;21230;-51
2021/11/19 07:37:07;;;;;;;7.37;6.60;;;11.10;99.90;;;;;;5027111;28;20214;-55
2021/11/19 07:39:33;;;;;;;7.77;6.73;;;11.10;99.90;;;;;;5042395;28;20468;-55
2021/11/19 07:41:59;;;;;;;7.90;7.10;;;11.10;99.90;;;;;;5048318;28;20505;-52
2021/11/19 07:44:25;;;;;;;8.40;6.90;;;11.20;99.90;;;;;;5047950;28;20250;-55
2021/11/19 07:46:52;;;;;;;6.90;6.20;;;11.10;99.90;;;;;;5055064;28;20440;-51
2021/11/19 07:49:17;;;;;;;8.00;6.80;;;11.10;99.90;;;;;;5047029;28;20202;-54
2021/11/19 07:51:46;;;;;;;8.43;6.93;;;11.10;99.90;;;;;;5039426;28;20475;-56
2021/11/19 07:54:12;;;;;;;7.13;6.43;;;11.10;99.90;;;;;;5039550;28;20187;-56
2021/11/19 07:56:38;;;;;;;6.97;6.27;;;11.20;99.90;;;;;;5039974;28;20413;-54
2021/11/19 07:59:11;;;;;;;7.40;6.60;;;11.20;99.90;;;;;;5048262;28;20432;-51
2021/11/19 08:01:39;;;;;;;7.43;6.73;;;11.20;99.90;;;;;;5036353;28;20275;-54
2021/11/19 08:04:05;;;;;;;7.67;6.67;;;11.10;99.90;;;;;;5048479;28;20437;-52
2021/11/19 08:06:32;;;;;;;6.80;6.10;;;11.20;99.90;;;;;;5028979;28;20429;-53
2021/11/19 08:08:58;;;;;;;8.23;5.87;;;11.20;99.90;;;;;;5052269;28;20284;-55
2021/11/19 08:11:24;;;;;;;8.37;6.70;;;11.30;99.90;;;;;;5040804;28;20414;-51
2021/11/19 08:13:51;;;;;;;7.37;5.63;;;11.30;99.90;;;;;;5039733;28;20499;-53
2021/11/19 08:16:17;;;;;;;6.43;5.77;;;11.30;99.90;;;;;;5029447;28;20774;-53
2021/11/19 08:18:51;;;;;;;7.93;5.70;;;11.30;99.90;;;;;;5043433;28;20455;-49
2021/11/19 08:21:17;;;;;;;6.97;6.20;;;11.30;99.90;;;;;;5047144;28;20436;-54
2021/11/19 08:23:54;;;;;;;6.10;5.50;;;11.30;99.90;;;;;;5042686;28;20443;-54
2021/11/19 08:26:49;;;;;;;7.00;5.80;;;11.40;99.90;;;;;;5039696;28;20784;-51
2021/11/19 08:29:21;;;;;;;7.40;5.93;;;11.40;99.90;;;;;;5041783;28;20465;-54
2021/11/19 08:31:48;;;;;;;6.87;6.17;;;11.40;99.90;;;;;;5039026;28;20417;-54
2021/11/19 08:34:14;;;;;;;6.23;5.60;;;11.50;99.90;;;;;;5041487;28;20413;-49
2021/11/19 08:36:40;;;;;;;7.77;5.40;;;11.50;99.90;;;;;;5029279;28;20444;-53
2021/11/19 08:39:08;;;;;;;7.33;5.70;;;11.40;99.90;;;;;;5032357;28;20477;-52
2021/11/19 08:41:34;;;;;;;6.07;5.47;;;11.50;99.90;;;;;;5022334;28;20813;-51
2021/11/19 08:44:01;;;;;;;6.53;5.57;;;11.50;99.90;;;;;;5046515;28;20433;-52
2021/11/19 08:46:30;;;;;;;6.03;5.43;;;11.60;99.90;;;;;;5041344;28;20221;-51
2021/11/19 08:48:57;;;;;;;6.13;5.43;;;11.50;99.90;;;;;;5043774;28;20464;-54
2021/11/19 08:51:26;;;;;;;6.30;5.53;;;11.60;99.90;;;;;;5042649;28;20432;-55
2021/11/19 08:53:55;;;;;;;6.50;4.90;;;11.50;99.90;;;;;;5046719;28;20474;-51
2021/11/19 08:56:22;;;;;;;5.70;5.07;;;11.60;99.90;;;;;;5043677;28;21188;-55
2021/11/19 08:58:47;;;;;;;5.93;5.33;;;11.60;99.90;;;;;;5047242;28;21160;-54
2021/11/19 09:01:16;;;;;;;5.47;4.90;;;11.60;99.90;;;;;;5045535;28;20432;-53
2021/11/19 09:03:42;;;;;;;6.10;4.80;;;11.70;99.90;;;;;;5045230;28;20193;-54
2021/11/19 09:06:10;;;;;;;5.97;5.07;;;11.60;99.90;;;;;;5040110;28;20437;-53
2021/11/19 09:08:37;;;;;;;7.57;5.10;;;11.60;99.90;;;;;;5046888;28;21054;-50
2021/11/19 09:11:04;;;;;;;5.33;4.83;;;11.70;99.90;;;;;;5023914;28;20520;-55
2021/11/19 09:13:31;;;;;;;5.30;4.80;;;11.60;99.90;;;;;;5028402;28;20422;-55
2021/11/19 09:15:59;;;;;;;8.23;5.23;;;11.70;99.90;;;;;;5029854;28;21143;-54
2021/11/19 09:18:46;;;;;;;5.90;4.30;;;11.70;99.90;;;;;;5046737;28;20429;-52
2021/11/19 09:21:26;;;;;;;5.20;4.70;;;11.70;99.90;;;;;;5025192;28;20499;-53
2021/11/19 09:24:17;;;;;;;5.77;4.57;;;11.60;99.90;;;;;;5035491;28;20433;-53
2021/11/19 09:26:48;;;;;;;7.70;4.23;;;11.60;99.90;;;;;;5038325;28;20441;-55
2021/11/19 09:29:17;;;;;;;5.03;4.53;;;11.60;99.90;;;;;;5028308;28;21322;-54
2021/11/19 09:31:44;;;;;;;5.33;4.57;;;11.60;99.90;;;;;;5033465;28;20435;-53
2021/11/19 09:34:11;;;;;;;6.23;5.40;;;11.60;99.90;;;;;;5033424;28;20425;-51
2021/11/19 09:36:38;;;;;;;4.43;4.03;;;11.70;99.90;;;;;;5043925;28;20433;-54
2021/11/19 09:39:07;;;;;;;4.80;4.33;;;11.70;99.90;;;;;;5035577;28;20510;-52
2021/11/19 09:41:45;;;;;;;5.33;4.30;;;11.70;99.90;;;;;;5037387;28;20423;-53
2021/11/19 09:44:27;;;;;;;4.63;4.20;;;11.70;99.90;;;;;;5032115;28;20911;-52
2021/11/19 09:47:26;;;;;;;4.90;4.40;;;11.70;99.90;;;;;;5028243;28;20424;-54
2021/11/19 09:50:29;;;;;;;4.60;3.90;;;11.80;99.90;;;;;;5027860;28;20426;-53
2021/11/19 09:53:32;;;;;;;4.40;4.00;;;11.80;99.90;;;;;;5028956;28;20437;-56
2021/11/19 09:56:36;;;;;;;5.07;4.57;;;11.80;99.90;;;;;;5022558;28;20487;-55
2021/11/19 09:59:24;;;;;;;4.47;4.07;;;11.70;99.90;;;;;;5049975;28;20451;-54
2021/11/19 10:01:58;;;;;;;4.00;3.70;;;11.70;99.90;;;;;;5048929;28;20868;-56
2021/11/19 10:04:38;;;;;;;4.73;4.30;;;11.70;99.90;;;;;;5030361;28;20494;-53
2021/11/19 10:07:09;;;;;;;4.87;4.20;;;11.70;99.90;;;;;;5048315;28;20425;-54
2021/11/19 10:10:02;;;;;;;4.90;4.00;;;11.70;99.90;;;;;;5048832;28;20467;-54
2021/11/19 10:12:38;;;;;;;4.20;3.80;;;11.80;99.90;;;;;;5048352;28;20416;-54
2021/11/19 10:15:19;;;;;;;5.73;3.73;;;11.70;99.90;;;;;;5037976;28;20495;-56
2021/11/19 10:18:10;;;;;;;4.60;3.50;;;11.70;99.90;;;;;;5038912;28;20428;-55
2021/11/19 10:20:36;;;;;;;4.40;3.80;;;11.80;99.90;;;;;;5041668;28;20447;-57
2021/11/19 10:23:13;;;;;;;4.07;3.27;;;11.80;99.90;;;;;;5020100;28;20436;-54
2021/11/19 10:26:10;;;;;;;4.50;3.53;;;11.80;99.90;;;;;;5048469;28;20553;-56
2021/11/19 10:28:46;;;;;;;4.40;3.57;;;11.90;99.90;;;;;;5029634;28;20475;-51
2021/11/19 10:31:16;;;;;;;3.73;3.30;;;11.90;99.90;;;;;;5049500;28;20411;-55
2021/11/19 10:33:56;;;;;;;5.60;3.77;;;11.90;99.90;;;;;;5046628;28;20436;-52
2021/11/19 10:36:39;;;;;;;4.00;3.60;;;11.90;99.90;;;;;;5045526;28;20420;-52
2021/11/19 10:39:14;;;;;;;3.90;3.60;;;11.90;99.90;;;;;;5042727;28;20472;-54
2021/11/19 10:42:07;;;;;;;3.87;3.47;;;11.90;99.90;;;;;;5031127;28;20401;-54
2021/11/19 10:45:07;;;;;;;4.20;3.80;;;11.90;99.90;;;;;;5031261;28;20410;-51
2021/11/19 10:48:01;;;;;;;4.27;3.87;;;11.90;99.90;;;;;;5034046;28;20432;-52
2021/11/19 10:51:00;;;;;;;4.13;3.60;;;11.90;99.90;;;;;;5044286;28;20482;-51
2021/11/19 10:53:31;;;;;;;4.30;3.83;;;11.90;99.90;;;;;;5049637;28;20504;-51
2021/11/19 10:56:13;;;;;;;3.83;3.47;;;11.90;99.90;;;;;;5047518;28;20425;-51
2021/11/19 10:58:39;;;;;;;4.10;3.70;;;11.90;99.90;;;;;;5036323;28;20438;-52
2021/11/19 11:01:07;;;;;;;5.23;3.90;;;11.90;99.90;;;;;;5031983;28;20903;-54
2021/11/19 11:03:40;;;;;;;3.70;3.13;;;11.90;99.90;;;;;;5049139;28;20190;-52
2021/11/19 11:06:10;;;;;;;4.83;4.13;;;11.90;99.90;;;;;;5049343;28;20409;-57
2021/11/19 11:08:40;;;;;;;3.83;3.43;;;11.90;99.90;;;;;;5040862;28;20465;-52
2021/11/19 11:11:09;;;;;;;4.10;3.47;;;11.90;99.90;;;;;;5044636;28;20511;-52
2021/11/19 11:13:42;;;;;;;3.80;3.40;;;11.80;99.90;;;;;;5044754;28;20432;-56
2021/11/19 11:16:19;;;;;;;4.30;3.20;;;11.90;99.90;;;;;;5043014;28;20926;-55
2021/11/19 11:18:44;;;;;;;3.50;3.20;;;11.90;99.90;;;;;;5046861;28;20816;-50
2021/11/19 11:21:38;;;;;;;3.93;3.53;;;12.00;99.90;;;;;;5046939;28;20464;-49
2021/11/19 11:24:16;;;;;;;3.50;3.20;;;11.90;99.90;;;;;;5018039;28;21062;-55
2021/11/19 11:27:03;;;;;;;4.10;3.60;;;11.80;99.90;;;;;;5041175;28;20432;-54
2021/11/19 11:29:37;;;;;;;4.10;3.30;;;11.80;99.90;;;;;;5039351;28;20517;-54
2021/11/19 11:32:21;;;;;;;3.60;3.30;;;11.90;99.90;;;;;;5044785;28;20808;-56
2021/11/19 11:35:13;;;;;;;3.77;3.13;;;11.80;99.90;;;;;;5043890;28;20413;-56
2021/11/19 11:37:52;;;;;;;4.20;3.00;;;11.80;99.90;;;;;;5029588;28;20511;-56
2021/11/19 11:40:51;;;;;;;4.73;3.80;;;11.70;99.90;;;;;;5029697;28;20484;-55
2021/11/19 11:43:28;;;;;;;4.00;3.27;;;11.80;99.90;;;;;;5036408;28;21054;-58
2021/11/19 11:45:55;;;;;;;3.70;3.40;;;11.80;99.90;;;;;;5042402;28;20413;-55
2021/11/19 11:49:14;;;;;;;5.40;3.50;;;11.80;99.90;;;;;;5047849;28;20615;-53
2021/11/19 11:52:01;;;;;;;4.23;3.83;;;11.70;99.90;;;;;;5007545;28;20978;-52
2021/11/19 11:55:04;;;;;;;3.77;3.47;;;11.70;99.90;;;;;;5041722;28;20433;-51
2021/11/19 11:57:33;;;;;;;3.57;3.17;;;11.70;99.90;;;;;;5018027;28;20425;-53
2021/11/19 12:00:18;;;;;;;3.47;3.17;;;11.70;99.90;;;;;;5032108;28;20452;-54
2021/11/19 12:02:58;;;;;;;3.37;2.90;;;11.80;99.90;;;;;;5033897;28;20416;-55
2021/11/19 12:05:29;;;;;;;3.50;3.03;;;11.80;99.90;;;;;;5034354;28;20417;-54
2021/11/19 12:08:32;;;;;;;6.90;3.30;;;11.80;99.90;;;;;;5037154;28;20523;-51
2021/11/19 12:11:36;;;;;;;3.40;3.10;;;11.80;99.90;;;;;;5038060;28;20904;-54
2021/11/19 12:14:22;;;;;;;3.57;2.90;;;11.70;99.90;;;;;;5028279;28;20489;-50
2021/11/19 12:17:04;;;;;;;4.10;3.30;;;11.70;99.90;;;;;;5029169;28;20764;-55
2021/11/19 12:19:36;;;;;;;2.90;2.67;;;11.60;99.90;;;;;;5029849;28;20465;-52
2021/11/19 12:22:27;;;;;;;3.00;2.53;;;11.60;99.90;;;;;;5027991;28;20947;-50
2021/11/19 12:25:58;;;;;;;4.10;3.50;;;11.60;99.90;;;;;;5036854;28;20436;-62
2021/11/19 12:28:36;;;;;;;3.50;3.20;;;11.70;99.90;;;;;;4953681;28;20495;-61
2021/11/19 12:31:33;;;;;;;3.40;3.10;;;11.60;99.90;;;;;;4949380;28;20420;-63
2021/11/19 12:34:15;;;;;;;2.67;2.47;;;11.70;99.90;;;;;;4951975;28;20429;-62
2021/11/19 12:36:53;;;;;;;3.13;2.67;;;11.70;99.90;;;;;;4966362;28;20436;-61
2021/11/19 12:39:20;;;;;;;4.83;2.80;;;11.80;99.90;;;;;;4961333;28;20473;-60
2021/11/19 12:42:06;;;;;;;3.27;2.97;;;11.80;99.90;;;;;;4946457;29;20452;-61
2021/11/19 12:44:45;;;;;;;2.60;2.40;;;11.80;99.90;;;;;;4946076;29;20519;-63
2021/11/19 12:47:32;;;;;;;3.70;3.00;;;11.70;99.90;;;;;;4948052;29;20433;-62
2021/11/19 12:50:20;;;;;;;2.60;2.40;;;11.70;99.90;;;;;;4943154;29;20452;-63
2021/11/19 12:53:22;;;;;;;3.10;2.57;;;11.80;99.90;;;;;;4945162;29;20441;-64
2021/11/19 12:56:19;;;;;;;3.03;2.80;;;11.60;99.90;;;;;;4896715;29;20934;-64
2021/11/19 12:58:56;;;;;;;2.93;2.73;;;11.70;99.90;;;;;;4974395;28;20415;-61
2021/11/19 13:01:25;;;;;;;3.60;2.60;;;11.60;99.90;;;;;;5004009;28;20429;-62
2021/11/19 13:04:05;;;;;;;2.40;2.20;;;11.60;99.90;;;;;;5006575;28;20442;-62
2021/11/19 13:06:59;;;;;;;4.00;2.60;;;11.70;99.90;;;;;;4999840;28;20438;-63
2021/11/19 13:09:39;;;;;;;2.30;2.10;;;11.70;99.90;;;;;;5007306;28;20446;-65
2021/11/19 13:12:37;;;;;;;3.03;2.83;;;11.70;99.90;;;;;;5001931;28;21075;-62
2021/11/19 13:15:31;;;;;;;3.03;2.53;;;11.80;99.90;;;;;;5017131;28;20500;-66
2021/11/19 13:18:00;;;;;;;2.30;2.10;;;11.80;99.90;;;;;;5017508;28;20435;-64